createdAt,value
2023-01-07T00:00:41.407Z,29.00
2023-01-07T00:03:49.491Z,25.70
2023-01-07T00:06:57.183Z,24.30
2023-01-07T00:10:04.819Z,27.50
2023-01-07T00:13:12.437Z,22.80
2023-01-07T00:16:20.287Z,25.90
2023-01-07T00:19:27.908Z,27.00
2023-01-07T00:22:35.584Z,29.00
2023-01-07T00:25:43.125Z,31.00
2023-01-07T00:28:51.133Z,26.40
2023-01-07T00:31:58.836Z,23.20
2023-01-07T00:35:06.314Z,22.00
2023-01-07T00:38:13.965Z,20.30
2023-01-07T00:41:21.617Z,20.60
2023-01-07T00:44:29.314Z,17.20
2023-01-07T00:47:36.921Z,19.60
2023-01-07T00:50:44.361Z,15.00
2023-01-07T00:53:51.919Z,14.70
2023-01-07T00:56:59.199Z,12.60
2023-01-07T01:00:06.949Z,12.40
2023-01-07T01:03:14.152Z,10.80
2023-01-07T01:06:22.060Z,9.60
2023-01-07T01:09:29.902Z,10.50
2023-01-07T01:12:37.052Z,7.40
2023-01-07T01:15:44.733Z,9.30
2023-01-07T01:18:52.372Z,8.50
2023-01-07T01:22:00.034Z,5.90
2023-01-07T01:25:08.094Z,8.20
2023-01-07T01:28:15.761Z,5.10
2023-01-07T01:31:23.399Z,5.10
2023-01-07T01:34:34.457Z,4.70
2023-01-07T01:37:41.719Z,5.20
2023-01-07T01:40:48.738Z,7.20
2023-01-07T01:43:55.854Z,6.90
2023-01-07T01:47:03.551Z,6.00
2023-01-07T01:50:10.621Z,5.30
2023-01-07T01:53:17.774Z,7.40
2023-01-07T01:56:25.292Z,5.60
2023-01-07T01:59:32.006Z,7.00
2023-01-07T02:02:39.562Z,4.80
2023-01-07T02:05:46.745Z,6.30
2023-01-07T02:08:53.424Z,5.90
2023-01-07T02:12:00.974Z,6.30
2023-01-07T02:15:08.217Z,7.50
2023-01-07T02:18:15.104Z,6.40
2023-01-07T02:21:22.443Z,6.30
2023-01-07T02:24:29.567Z,5.50
2023-01-07T02:27:36.460Z,6.30
2023-01-07T02:30:43.551Z,6.20
2023-01-07T02:33:50.288Z,6.30
2023-01-07T02:36:57.330Z,6.90
2023-01-07T02:40:04.574Z,5.20
2023-01-07T02:43:11.963Z,7.50
2023-01-07T02:46:19.395Z,6.40
2023-01-07T02:49:26.723Z,6.20
2023-01-07T02:52:34.016Z,5.70
2023-01-07T02:55:41.226Z,4.90
2023-01-07T02:58:48.271Z,5.90
2023-01-07T03:01:55.494Z,4.80
2023-01-07T03:05:02.193Z,6.20
2023-01-07T03:08:09.501Z,6.80
2023-01-07T03:11:17.119Z,6.60
2023-01-07T03:14:23.888Z,5.60
2023-01-07T03:17:31.542Z,7.30
2023-01-07T03:20:38.860Z,5.90
2023-01-07T03:23:46.354Z,8.70
2023-01-07T03:26:53.721Z,6.90
2023-01-07T03:30:00.909Z,7.20
2023-01-07T03:33:08.085Z,7.40
2023-01-07T03:36:15.069Z,6.00
2023-01-07T03:39:22.603Z,7.30
2023-01-07T03:42:30.134Z,6.50
2023-01-07T03:45:36.913Z,7.80
2023-01-07T03:48:44.247Z,6.90
2023-01-07T03:51:51.731Z,7.60
2023-01-07T03:54:58.677Z,6.80
2023-01-07T03:58:06.088Z,6.50
2023-01-07T04:01:13.441Z,5.90
2023-01-07T04:04:20.568Z,5.60
2023-01-07T04:07:28.018Z,9.80
2023-01-07T04:10:35.191Z,6.50
2023-01-07T04:13:42.250Z,5.10
2023-01-07T04:16:49.761Z,6.70
2023-01-07T04:19:56.805Z,5.50
2023-01-07T04:23:03.947Z,4.70
2023-01-07T04:26:11.103Z,4.80
2023-01-07T04:29:20.777Z,5.40
2023-01-07T04:32:28.313Z,5.90
2023-01-07T04:35:35.463Z,4.80
2023-01-07T04:38:42.536Z,6.90
2023-01-07T04:41:49.918Z,6.50
2023-01-07T04:44:57.048Z,8.40
2023-01-07T04:48:04.318Z,6.80
2023-01-07T04:51:11.835Z,9.10
2023-01-07T04:54:18.604Z,9.70
2023-01-07T04:57:25.661Z,8.90
2023-01-07T05:00:32.865Z,8.40
2023-01-07T05:03:40.057Z,9.80
2023-01-07T05:06:47.178Z,10.80
2023-01-07T05:09:54.109Z,13.30
2023-01-07T05:13:01.751Z,14.00
2023-01-07T05:16:08.789Z,15.40
2023-01-07T05:19:15.621Z,17.40
2023-01-07T05:22:23.241Z,18.60
2023-01-07T05:25:30.301Z,14.60
2023-01-07T05:28:37.404Z,15.90
2023-01-07T05:31:45.219Z,14.60
2023-01-07T05:34:52.016Z,16.90
2023-01-07T05:37:59.583Z,16.90
2023-01-07T05:41:07.212Z,16.70
2023-01-07T05:44:14.039Z,17.90
2023-01-07T05:47:21.271Z,16.00
2023-01-07T05:50:28.826Z,14.90
2023-01-07T05:53:35.591Z,14.80
2023-01-07T05:56:43.145Z,14.80
2023-01-07T05:59:50.177Z,16.90
2023-01-07T06:02:57.113Z,17.20
2023-01-07T06:06:04.888Z,13.60
2023-01-07T06:09:12.190Z,14.20
2023-01-07T06:12:19.297Z,13.00
2023-01-07T06:15:26.464Z,13.70
2023-01-07T06:18:33.422Z,10.80
2023-01-07T06:21:40.494Z,10.90
2023-01-07T06:24:47.577Z,10.50
2023-01-07T06:27:55.301Z,11.60
2023-01-07T06:31:02.688Z,12.10
2023-01-07T06:34:09.900Z,14.50
2023-01-07T06:37:17.593Z,11.30
2023-01-07T06:40:24.445Z,12.20
2023-01-07T06:43:32.181Z,13.20
2023-01-07T06:46:40.129Z,11.90
2023-01-07T06:49:47.115Z,12.80
2023-01-07T06:52:54.706Z,12.50
2023-01-07T06:56:02.226Z,12.40
2023-01-07T06:59:09.060Z,12.80
2023-01-07T07:02:16.450Z,14.10
2023-01-07T07:05:23.586Z,12.80
2023-01-07T07:08:30.517Z,13.40
2023-01-07T07:11:37.766Z,11.70
2023-01-07T07:14:44.876Z,11.20
2023-01-07T07:17:52.250Z,12.10
2023-01-07T07:20:59.571Z,11.60
2023-01-07T07:24:06.958Z,12.20
2023-01-07T07:27:14.328Z,11.60
2023-01-07T07:30:21.377Z,10.30
2023-01-07T07:33:28.943Z,13.00
2023-01-07T07:36:36.352Z,11.90
2023-01-07T07:39:43.431Z,10.60
2023-01-07T07:43:10.246Z,11.90
2023-01-07T07:45:54.975Z,10.30
2023-01-07T07:49:02.441Z,10.30
2023-01-07T07:52:09.943Z,9.10
2023-01-07T07:55:20.336Z,10.90
2023-01-07T07:58:20.758Z,10.10
2023-01-07T08:01:28.807Z,13.20
2023-01-07T08:04:35.586Z,11.10
2023-01-07T08:07:43.052Z,12.10
2023-01-07T08:10:50.029Z,10.50
2023-01-07T08:13:56.754Z,20.10
2023-01-07T08:17:04.204Z,9.70
2023-01-07T08:20:10.816Z,14.30
2023-01-07T08:23:18.293Z,10.60
2023-01-07T08:26:25.364Z,6.20
2023-01-07T08:29:32.174Z,7.90
2023-01-07T08:32:39.656Z,5.40
2023-01-07T08:35:47.089Z,4.70
2023-01-07T08:38:53.843Z,5.90
2023-01-07T08:42:01.124Z,4.70
2023-01-07T08:45:08.258Z,4.40
2023-01-07T08:48:15.192Z,4.60
2023-01-07T08:51:22.453Z,4.90
2023-01-07T08:54:29.588Z,7.20
2023-01-07T08:57:36.933Z,7.10
2023-01-07T09:00:44.095Z,5.00
2023-01-07T09:03:51.358Z,4.50
2023-01-07T09:06:58.460Z,5.10
2023-01-07T09:10:05.485Z,3.50
2023-01-07T09:13:12.606Z,3.30
2023-01-07T09:16:19.797Z,4.60
2023-01-07T09:19:26.827Z,4.30
2023-01-07T09:22:34.467Z,3.60
2023-01-07T09:25:41.715Z,3.90
2023-01-07T09:28:48.858Z,3.70
2023-01-07T09:31:55.944Z,3.00
2023-01-07T09:35:02.685Z,4.60
2023-01-07T09:38:10.308Z,4.00
2023-01-07T09:41:17.569Z,3.90
2023-01-07T09:44:24.700Z,4.70
2023-01-07T09:47:32.385Z,3.30
2023-01-07T09:50:39.386Z,3.70
2023-01-07T09:53:46.263Z,3.10
2023-01-07T09:56:53.706Z,2.80
2023-01-07T10:00:00.892Z,2.50
2023-01-07T10:03:08.073Z,2.70
2023-01-07T10:06:15.645Z,2.90
2023-01-07T10:09:22.837Z,1.70
2023-01-07T10:12:29.914Z,1.90
2023-01-07T10:15:36.900Z,2.00
2023-01-07T10:18:44.756Z,1.50
2023-01-07T10:21:51.741Z,1.70
2023-01-07T10:24:58.781Z,1.20
2023-01-07T10:28:05.970Z,1.40
2023-01-07T10:31:13.437Z,2.70
2023-01-07T10:34:20.543Z,2.30
2023-01-07T10:37:27.980Z,7.70
2023-01-07T10:40:35.162Z,4.00
2023-01-07T10:43:42.609Z,2.00
2023-01-07T10:46:50.116Z,0.90
2023-01-07T10:49:56.929Z,1.30
2023-01-07T10:53:04.029Z,1.00
2023-01-07T10:56:11.237Z,1.10
2023-01-07T10:59:18.560Z,0.90
2023-01-07T11:02:26.366Z,0.90
2023-01-07T11:05:33.392Z,0.60
2023-01-07T11:08:41.103Z,1.60
2023-01-07T11:11:48.706Z,0.40
2023-01-07T11:14:55.641Z,0.90
2023-01-07T11:18:03.304Z,0.80
2023-01-07T11:21:42.541Z,0.50
2023-01-07T11:24:14.997Z,1.00
2023-01-07T11:27:22.619Z,0.50
2023-01-07T11:30:29.969Z,0.30
2023-01-07T11:34:02.621Z,1.30
2023-01-07T11:36:41.458Z,0.30
2023-01-07T11:39:49.610Z,1.20
2023-01-07T11:42:56.832Z,0.50
2023-01-07T11:46:21.134Z,0.80
2023-01-07T11:49:08.203Z,1.10
2023-01-07T11:52:15.799Z,0.30
2023-01-07T11:55:22.883Z,0.60
2023-01-07T11:58:31.354Z,0.50
2023-01-07T12:01:38.755Z,1.80
2023-01-07T12:04:45.908Z,1.50
2023-01-07T12:07:53.220Z,0.80
2023-01-07T12:11:00.580Z,0.20
2023-01-07T12:14:07.442Z,1.10
2023-01-07T12:17:14.980Z,0.40
2023-01-07T12:20:22.703Z,0.20
2023-01-07T12:23:29.743Z,0.30
2023-01-07T12:26:37.555Z,0.70
2023-01-07T12:29:44.468Z,0.20
2023-01-07T12:32:51.413Z,1.00
2023-01-07T12:35:58.478Z,1.10
2023-01-07T12:39:05.337Z,0.50
2023-01-07T12:42:12.779Z,2.60
2023-01-07T12:45:19.742Z,0.60
2023-01-07T12:48:27.253Z,1.10
2023-01-07T12:51:34.412Z,2.30
2023-01-07T12:54:41.539Z,1.30
2023-01-07T12:57:48.600Z,5.60
2023-01-07T13:00:55.942Z,6.70
2023-01-07T13:04:03.214Z,1.60
2023-01-07T13:07:10.455Z,0.30
2023-01-07T13:10:17.969Z,1.70
2023-01-07T13:13:25.208Z,0.80
2023-01-07T13:16:32.525Z,1.00
2023-01-07T13:19:39.709Z,1.20
2023-01-07T13:22:47.422Z,0.40
2023-01-07T13:25:54.536Z,0.90
2023-01-07T13:29:02.553Z,0.20
2023-01-07T13:32:10.215Z,0.40
2023-01-07T13:35:17.595Z,0.30
2023-01-07T13:38:24.987Z,0.70
2023-01-07T13:41:32.528Z,0.30
2023-01-07T13:44:39.292Z,0.50
2023-01-07T13:47:46.841Z,0.70
2023-01-07T13:50:54.481Z,0.60
2023-01-07T13:54:02.259Z,1.70
2023-01-07T13:57:09.492Z,1.50
2023-01-07T14:00:17.327Z,1.10
2023-01-07T14:03:24.129Z,0.70
2023-01-07T14:06:31.695Z,0.60
2023-01-07T14:09:38.919Z,0.90
2023-01-07T14:12:46.311Z,0.60
2023-01-07T14:15:54.118Z,0.80
2023-01-07T14:19:01.316Z,0.70
2023-01-07T14:22:08.365Z,1.00
2023-01-07T14:25:15.778Z,0.30
2023-01-07T14:28:23.418Z,0.40
2023-01-07T14:31:30.593Z,3.40
2023-01-07T14:34:37.484Z,1.30
2023-01-07T14:37:45.201Z,1.90
2023-01-07T14:40:52.282Z,0.70
2023-01-07T14:43:59.510Z,0.60
2023-01-07T14:47:06.959Z,0.60
2023-01-07T14:50:14.137Z,0.50
2023-01-07T14:53:21.172Z,0.80
2023-01-07T14:56:28.700Z,0.90
2023-01-07T14:59:35.495Z,1.20
2023-01-07T15:02:42.958Z,1.50
2023-01-07T15:05:50.573Z,0.70
2023-01-07T15:08:57.637Z,0.30
2023-01-07T15:12:04.800Z,0.90
2023-01-07T15:15:12.098Z,1.80
2023-01-07T15:18:19.502Z,1.00
2023-01-07T15:21:26.722Z,0.80
2023-01-07T15:24:33.947Z,0.50
2023-01-07T15:27:41.119Z,1.70
2023-01-07T15:30:48.373Z,1.30
2023-01-07T15:33:55.582Z,0.50
2023-01-07T15:37:03.075Z,1.00
2023-01-07T15:40:10.246Z,1.00
2023-01-07T15:43:17.361Z,1.10
2023-01-07T15:46:24.974Z,1.60
2023-01-07T15:49:32.064Z,1.00
2023-01-07T15:52:40.046Z,2.00
2023-01-07T15:55:47.293Z,1.60
2023-01-07T15:58:53.980Z,1.40
2023-01-07T16:02:01.108Z,2.00
2023-01-07T16:05:08.376Z,2.30
2023-01-07T16:08:15.385Z,1.10
2023-01-07T16:11:22.823Z,2.40
2023-01-07T16:14:29.978Z,2.40
2023-01-07T16:17:37.467Z,1.00
2023-01-07T16:20:44.771Z,17.90
2023-01-07T16:23:52.291Z,1.70
2023-01-07T16:26:59.489Z,0.60
2023-01-07T16:30:06.462Z,1.80
2023-01-07T16:33:13.899Z,1.80
2023-01-07T16:36:21.028Z,1.40
2023-01-07T16:39:27.839Z,2.10
2023-01-07T16:42:35.178Z,1.40
2023-01-07T16:45:42.284Z,1.40
2023-01-07T16:48:49.310Z,1.10
2023-01-07T16:51:56.484Z,1.10
2023-01-07T16:55:03.196Z,1.70
2023-01-07T16:58:10.392Z,1.00
2023-01-07T17:01:17.510Z,1.30
2023-01-07T17:04:24.356Z,0.80
2023-01-07T17:07:31.773Z,2.10
2023-01-07T17:10:38.677Z,1.90
2023-01-07T17:13:45.525Z,1.70
2023-01-07T17:16:54.723Z,1.30
2023-01-07T17:20:01.895Z,2.40
2023-01-07T17:23:09.032Z,1.90
2023-01-07T17:26:16.191Z,2.30
2023-01-07T17:29:23.314Z,2.00
2023-01-07T17:32:30.773Z,0.80
2023-01-07T17:35:38.023Z,1.10
2023-01-07T17:38:45.205Z,2.10
2023-01-07T17:41:52.341Z,4.70
2023-01-07T17:44:59.092Z,2.90
2023-01-07T17:48:06.640Z,1.30
2023-01-07T17:51:13.652Z,1.60
2023-01-07T17:54:20.428Z,1.70
2023-01-07T17:57:28.137Z,1.40
2023-01-07T18:00:35.441Z,2.90
2023-01-07T18:03:42.548Z,1.30
2023-01-07T18:06:50.160Z,1.40
2023-01-07T18:09:56.963Z,3.70
2023-01-07T18:13:04.893Z,2.20
2023-01-07T18:16:12.397Z,1.70
2023-01-07T18:19:19.261Z,3.50
2023-01-07T18:22:26.980Z,3.90
2023-01-07T18:25:34.491Z,3.30
2023-01-07T18:28:41.573Z,2.70
2023-01-07T18:31:49.015Z,2.60
2023-01-07T18:34:56.472Z,5.40
2023-01-07T18:38:03.751Z,3.00
2023-01-07T18:41:11.171Z,3.80
2023-01-07T18:44:18.455Z,1.60
2023-01-07T18:47:25.863Z,2.50
2023-01-07T18:50:32.935Z,1.80
2023-01-07T18:53:40.666Z,1.50
2023-01-07T18:56:48.299Z,3.30
2023-01-07T18:59:55.199Z,1.50
2023-01-07T19:03:02.299Z,3.50
2023-01-07T19:06:09.891Z,5.40
2023-01-07T19:09:16.738Z,11.30
2023-01-07T19:12:23.994Z,2.90
2023-01-07T19:15:31.639Z,2.30
2023-01-07T19:18:38.382Z,3.20
2023-01-07T19:21:45.258Z,2.90
2023-01-07T19:24:52.626Z,3.00
2023-01-07T19:27:59.342Z,3.10
2023-01-07T19:31:06.365Z,2.60
2023-01-07T19:34:13.334Z,2.90
2023-01-07T19:37:20.420Z,6.10
2023-01-07T19:40:27.794Z,5.10
2023-01-07T19:43:35.208Z,2.40
2023-01-07T19:46:42.677Z,3.00
2023-01-07T19:49:50.116Z,3.10
2023-01-07T19:52:57.201Z,3.20
2023-01-07T19:56:04.209Z,2.60
2023-01-07T19:59:11.856Z,4.20
2023-01-07T20:02:19.281Z,3.90
2023-01-07T20:05:28.879Z,2.70
2023-01-07T20:08:35.912Z,3.40
2023-01-07T20:11:43.550Z,3.50
2023-01-07T20:14:50.689Z,3.00
2023-01-07T20:17:57.796Z,2.50
2023-01-07T20:21:05.364Z,3.50
2023-01-07T20:24:12.889Z,4.60
2023-01-07T20:27:20.317Z,4.60
2023-01-07T20:30:27.672Z,4.10
2023-01-07T20:33:36.511Z,2.80
2023-01-07T20:36:43.794Z,4.00
2023-01-07T20:39:51.237Z,3.80
2023-01-07T20:42:58.124Z,4.90
2023-01-07T20:46:05.863Z,3.40
2023-01-07T20:49:13.055Z,3.40
2023-01-07T20:52:20.030Z,2.60
2023-01-07T20:55:27.276Z,4.40
2023-01-07T20:58:34.523Z,3.30
2023-01-07T21:01:41.759Z,4.20
2023-01-07T21:04:48.750Z,2.10
2023-01-07T21:07:55.701Z,3.10
2023-01-07T21:11:03.232Z,3.80
2023-01-07T21:14:10.523Z,2.20
2023-01-07T21:17:17.660Z,2.40
2023-01-07T21:20:24.707Z,2.50
2023-01-07T21:23:31.813Z,2.90
2023-01-07T21:26:38.634Z,2.70
2023-01-07T21:29:45.705Z,2.20
2023-01-07T21:32:52.786Z,2.90
2023-01-07T21:35:59.903Z,4.40
2023-01-07T21:39:06.972Z,2.80
2023-01-07T21:42:13.711Z,2.00
2023-01-07T21:45:21.124Z,2.10
2023-01-07T21:48:28.650Z,2.60
2023-01-07T21:51:35.420Z,2.10
2023-01-07T21:54:42.921Z,3.10
2023-01-07T21:57:50.005Z,2.70
2023-01-07T22:00:57.383Z,1.80
2023-01-07T22:04:04.884Z,1.90
2023-01-07T22:07:11.975Z,2.30
2023-01-07T22:10:19.108Z,1.90
2023-01-07T22:13:26.393Z,3.00
2023-01-07T22:16:33.515Z,3.30
2023-01-07T22:19:40.627Z,5.20
2023-01-07T22:22:47.347Z,2.20
2023-01-07T22:25:55.011Z,2.00
2023-01-07T22:29:03.337Z,2.80
2023-01-07T22:32:10.690Z,2.30
2023-01-07T22:35:18.071Z,2.70
2023-01-07T22:38:25.122Z,2.40
2023-01-07T22:41:32.083Z,2.40
2023-01-07T22:44:39.375Z,2.60
2023-01-07T22:47:46.317Z,2.30
2023-01-07T22:50:53.368Z,2.60
2023-01-07T22:54:00.594Z,4.10
2023-01-07T22:57:07.298Z,12.60
2023-01-07T23:00:14.598Z,8.40
2023-01-07T23:03:22.216Z,1.80
2023-01-07T23:06:28.998Z,3.20
2023-01-07T23:09:36.419Z,2.80
2023-01-07T23:12:43.852Z,9.50
2023-01-07T23:15:50.634Z,9.40
2023-01-07T23:18:57.968Z,4.90
2023-01-07T23:22:05.215Z,3.80
2023-01-07T23:25:12.190Z,2.60
2023-01-07T23:28:19.566Z,2.50
2023-01-07T23:31:26.795Z,2.90
2023-01-07T23:34:33.813Z,2.50
2023-01-07T23:37:40.987Z,3.80
2023-01-07T23:40:48.707Z,2.70
2023-01-07T23:43:55.802Z,2.20
2023-01-07T23:47:02.812Z,3.00
2023-01-07T23:50:10.183Z,3.60
2023-01-07T23:53:17.288Z,2.90
2023-01-07T23:56:24.423Z,2.60
2023-01-07T23:59:31.687Z,1.80
